Time;durP1;ratioP1;P1;durP2;ratioP2;P2;SDS_P1;SDS_P2;PMS_P1;PMS_P2;Temp;Humidity;BMP_temperature;BMP_pressure;BME280_temperature;BME280_humidity;BME280_pressure;Samples;Min_cycle;Max_cycle;Signal;HPM_P1;HPM_P2
2023/02/10 00:01:29;;;;;;;32.00;19.73;;;;;;;-5.37;46.74;95507.22;4987182;28;20034;-78
2023/02/10 00:03:56;;;;;;;25.70;15.63;;;;;;;-5.28;47.12;95543.50;4985981;28;20066;-78
2023/02/10 00:06:23;;;;;;;41.17;24.05;;;;;;;-5.39;47.21;95537.72;4983273;28;20022;-77
2023/02/10 00:08:59;;;;;;;37.58;24.55;;;;;;;-5.38;47.35;95547.13;4986204;28;20042;-79
2023/02/10 00:14:13;;;;;;;41.03;23.50;;;;;;;-5.39;47.43;95537.72;4987130;28;20111;-78
2023/02/10 00:16:39;;;;;;;30.45;19.40;;;;;;;-5.27;47.39;95532.91;4982191;28;20057;-77
2023/02/10 00:19:04;;;;;;;41.42;24.90;;;;;;;-5.48;47.14;95505.06;4976624;28;20034;-77
2023/02/10 00:21:30;;;;;;;27.30;17.40;;;;;;;-5.55;47.29;95505.91;4988118;28;20632;-80
2023/02/10 00:23:55;;;;;;;27.58;15.45;;;;;;;-5.37;47.47;95546.13;4987440;28;20093;-78
2023/02/10 00:26:21;;;;;;;20.73;12.73;;;;;;;-5.36;47.39;95534.78;4987177;28;20551;-78
2023/02/10 00:28:46;;;;;;;19.58;12.68;;;;;;;-5.53;47.20;95501.34;4982413;28;20034;-77
2023/02/10 00:31:14;;;;;;;30.95;16.48;;;;;;;-5.28;47.13;95544.31;4987926;28;20062;-77
2023/02/10 00:33:41;;;;;;;24.40;13.07;;;;;;;-5.45;47.50;95543.59;4988359;28;20188;-78
2023/02/10 00:36:11;;;;;;;30.85;15.05;;;;;;;-5.60;47.62;95521.97;4989162;28;20121;-77
2023/02/10 00:38:37;;;;;;;28.98;15.45;;;;;;;-5.61;47.69;95533.31;4988668;28;20038;-78
2023/02/10 00:41:08;;;;;;;26.02;16.10;;;;;;;-5.56;47.67;95522.44;4986046;28;20092;-78
2023/02/10 00:43:34;;;;;;;26.60;15.80;;;;;;;-5.65;47.72;95518.28;4985008;28;20050;-79
2023/02/10 00:45:59;;;;;;;29.15;16.77;;;;;;;-5.87;48.08;95494.78;4989178;28;20038;-78
2023/02/10 00:48:25;;;;;;;29.48;16.05;;;;;;;-5.52;47.73;95513.34;4985968;28;20046;-77
2023/02/10 00:50:50;;;;;;;30.02;15.60;;;;;;;-5.83;47.95;95492.63;4988997;28;20034;-78
2023/02/10 00:53:16;;;;;;;27.95;15.18;;;;;;;-5.59;47.76;95505.44;4988742;28;20040;-78
2023/02/10 00:55:41;;;;;;;24.17;14.35;;;;;;;-5.58;47.79;95503.66;4988278;28;20484;-77
2023/02/10 00:58:06;;;;;;;33.15;15.75;;;;;;;-5.58;47.84;95517.44;4986409;28;20041;-78
2023/02/10 01:00:32;;;;;;;29.02;16.23;;;;;;;-5.59;47.64;95502.84;4989734;28;20088;-78
2023/02/10 01:02:57;;;;;;;29.02;17.23;;;;;;;-5.66;48.00;95509.69;4985563;28;20041;-77
2023/02/10 01:05:23;;;;;;;24.83;13.88;;;;;;;-5.68;47.98;95496.09;4988265;28;20116;-79
2023/02/10 01:07:48;;;;;;;24.40;14.43;;;;;;;-5.99;48.34;95475.38;4989067;28;20140;-78
2023/02/10 01:10:13;;;;;;;26.23;14.45;;;;;;;-5.76;48.05;95501.34;4989133;28;20033;-78
2023/02/10 01:12:39;;;;;;;22.85;13.60;;;;;;;-5.78;47.87;95498.94;4989120;28;20097;-77
2023/02/10 01:15:04;;;;;;;27.67;13.57;;;;;;;-5.68;47.62;95501.28;4988084;28;20660;-78
2023/02/10 01:17:30;;;;;;;23.60;14.07;;;;;;;-5.97;47.65;95457.09;4984100;28;24386;-78
2023/02/10 01:19:55;;;;;;;26.05;14.02;;;;;;;-5.65;47.56;95494.94;4984359;28;20031;-77
2023/02/10 01:22:21;;;;;;;25.15;13.70;;;;;;;-5.85;47.68;95487.63;4982058;28;20404;-77
2023/02/10 01:24:47;;;;;;;31.08;16.40;;;;;;;-5.81;47.78;95477.72;4987261;28;20048;-78
2023/02/10 01:27:12;;;;;;;28.00;15.65;;;;;;;-5.70;47.28;95466.94;4988836;28;20169;-78
2023/02/10 01:29:38;;;;;;;31.17;16.63;;;;;;;-5.72;47.50;95479.28;4987702;28;20857;-76
2023/02/10 01:32:03;;;;;;;33.20;16.92;;;;;;;-5.89;47.54;95449.25;4991863;28;20072;-77
2023/02/10 01:34:28;;;;;;;33.25;17.35;;;;;;;-5.65;47.53;95472.44;4990460;28;20401;-77
2023/02/10 01:36:54;;;;;;;25.73;16.17;;;;;;;-5.68;47.28;95470.19;4991031;28;20057;-79
2023/02/10 01:39:19;;;;;;;30.83;14.52;;;;;;;-5.61;47.41;95483.28;4992216;28;20118;-79
2023/02/10 01:41:45;;;;;;;26.95;13.25;;;;;;;-5.78;47.63;95470.41;4993106;28;20062;-78
2023/02/10 01:44:19;;;;;;;29.73;16.88;;;;;;;-5.69;47.74;95484.13;4992398;28;20033;-79
2023/02/10 01:46:46;;;;;;;27.33;15.15;;;;;;;-5.92;47.80;95459.97;4992248;28;20045;-77
2023/02/10 01:49:16;;;;;;;29.00;15.68;;;;;;;-5.95;47.76;95455.13;4989507;28;20065;-78
2023/02/10 01:51:47;;;;;;;29.95;16.00;;;;;;;-5.86;47.79;95477.44;4988787;28;20096;-79
2023/02/10 01:54:18;;;;;;;36.00;17.48;;;;;;;-5.83;47.84;95474.50;4989252;28;20038;-78
2023/02/10 01:56:44;;;;;;;29.98;15.38;;;;;;;-5.81;47.84;95480.31;4989676;28;20034;-77
2023/02/10 01:59:09;;;;;;;29.17;14.63;;;;;;;-5.83;47.72;95475.31;4991094;28;20040;-78
2023/02/10 02:01:35;;;;;;;27.15;13.48;;;;;;;-6.05;47.82;95441.59;4988846;28;20038;-78
2023/02/10 02:04:02;;;;;;;26.88;14.65;;;;;;;-5.95;48.00;95462.91;4992208;28;20034;-78
2023/02/10 02:06:27;;;;;;;21.33;11.80;;;;;;;-5.99;47.96;95436.53;4986281;28;20038;-77
2023/02/10 02:08:53;;;;;;;17.33;11.52;;;;;;;-6.00;47.58;95437.50;4990671;28;20532;-78
2023/02/10 02:11:28;;;;;;;13.15;8.93;;;;;;;-6.15;47.94;95434.03;4988839;28;20116;-76
2023/02/10 02:13:56;;;;;;;13.13;8.30;;;;;;;-5.98;47.83;95450.28;4990020;28;20034;-78
2023/02/10 02:16:34;;;;;;;12.93;8.55;;;;;;;-6.04;47.68;95445.78;4990788;28;20040;-77
2023/02/10 02:19:10;;;;;;;14.68;9.70;;;;;;;-5.94;47.65;95454.16;4989604;28;20045;-78
2023/02/10 02:21:41;;;;;;;14.45;8.60;;;;;;;-5.92;47.46;95439.25;4990130;28;20038;-78
2023/02/10 02:24:09;;;;;;;18.50;10.75;;;;;;;-5.86;47.34;95435.97;4989314;28;20047;-78
2023/02/10 02:26:55;;;;;;;26.98;14.05;;;;;;;-5.92;47.27;95439.25;4989228;28;20401;-77
2023/02/10 02:29:39;;;;;;;27.20;15.48;;;;;;;-5.80;47.17;95443.03;4990583;28;20312;-78
2023/02/10 02:32:13;;;;;;;51.30;24.88;;;;;;;-5.90;47.62;95439.88;4989816;28;20094;-78
2023/02/10 02:35:10;;;;;;;32.47;18.60;;;;;;;-5.87;47.85;95442.13;4995944;28;20137;-77
2023/02/10 02:37:42;;;;;;;33.92;18.40;;;;;;;-5.98;47.68;95425.19;4988708;28;20283;-78
2023/02/10 02:40:09;;;;;;;34.80;19.05;;;;;;;-5.91;47.96;95446.88;4990780;28;20046;-78
2023/02/10 02:42:34;;;;;;;30.25;16.48;;;;;;;-5.93;48.29;95448.00;4986671;28;20554;-77
2023/02/10 02:45:06;;;;;;;28.02;16.05;;;;;;;-6.02;48.27;95443.84;4990274;28;20496;-78
2023/02/10 02:47:44;;;;;;;36.47;18.58;;;;;;;-6.09;48.16;95448.09;4987357;28;20415;-78
2023/02/10 02:50:37;;;;;;;29.70;18.20;;;;;;;-6.08;48.34;95440.16;4999499;28;20216;-78
2023/02/10 02:53:28;;;;;;;33.63;19.25;;;;;;;-6.12;48.41;95441.47;4989962;28;20052;-77
2023/02/10 02:56:15;;;;;;;32.85;19.73;;;;;;;-6.21;48.90;95450.25;4986751;28;20359;-77
2023/02/10 02:59:03;;;;;;;34.00;20.30;;;;;;;-6.30;49.21;95449.47;4991323;28;20109;-77
2023/02/10 03:01:35;;;;;;;35.45;19.73;;;;;;;-6.24;49.16;95430.69;4988164;28;20471;-78
2023/02/10 03:04:01;;;;;;;38.08;21.20;;;;;;;-6.30;49.18;95431.34;4992166;28;20043;-78
2023/02/10 03:06:27;;;;;;;37.70;20.83;;;;;;;-6.38;49.06;95402.91;4988529;28;20038;-78
2023/02/10 03:08:53;;;;;;;44.67;22.05;;;;;;;-6.12;48.82;95438.06;4989508;28;20417;-78
2023/02/10 03:11:18;;;;;;;40.75;22.08;;;;;;;-6.13;48.70;95437.25;4988022;28;20603;-77
2023/02/10 03:13:44;;;;;;;46.25;24.65;;;;;;;-6.13;48.35;95433.88;4989318;28;20117;-78
2023/02/10 03:16:09;;;;;;;53.85;24.02;;;;;;;-6.11;48.11;95439.69;4989616;28;20592;-78
2023/02/10 03:18:35;;;;;;;48.60;25.08;;;;;;;-6.46;48.28;95399.56;4984597;28;20127;-78
2023/02/10 03:21:00;;;;;;;47.95;26.25;;;;;;;-6.21;48.50;95442.50;4989933;28;20435;-77
2023/02/10 03:23:25;;;;;;;46.97;24.58;;;;;;;-6.34;48.68;95442.22;5006603;28;20444;-76
2023/02/10 03:25:51;;;;;;;49.30;25.50;;;;;;;-6.28;48.29;95441.53;4988218;28;20057;-77
2023/02/10 03:28:16;;;;;;;46.17;23.58;;;;;;;-6.46;49.00;95413.31;4989834;28;20031;-77
2023/02/10 03:30:46;;;;;;;45.72;26.00;;;;;;;-6.42;49.14;95432.72;4992025;28;20822;-77
2023/02/10 03:33:13;;;;;;;53.92;27.38;;;;;;;-6.66;49.84;95418.09;4987287;28;20034;-78
2023/02/10 03:35:39;;;;;;;56.38;29.45;;;;;;;-6.61;49.87;95425.34;4988225;28;20088;-77
2023/02/10 03:38:06;;;;;;;57.40;30.65;;;;;;;-6.53;49.91;95440.84;4990788;28;20291;-78
2023/02/10 03:40:32;;;;;;;56.50;30.38;;;;;;;-6.65;49.86;95432.66;4987309;28;20491;-78
2023/02/10 03:42:57;;;;;;;53.15;26.25;;;;;;;-6.57;49.77;95433.59;4988963;28;20063;-77
2023/02/10 03:45:23;;;;;;;46.72;25.88;;;;;;;-6.51;49.77;95438.09;4987417;28;20035;-77
2023/02/10 03:47:48;;;;;;;45.28;24.50;;;;;;;-6.62;50.16;95421.97;4987409;28;20053;-77
2023/02/10 03:50:14;;;;;;;49.78;25.30;;;;;;;-6.48;49.86;95412.69;4990342;28;20034;-77
2023/02/10 03:52:39;;;;;;;44.22;26.02;;;;;;;-6.44;49.94;95408.78;4967274;28;20042;-77
2023/02/10 03:55:05;;;;;;;46.92;26.30;;;;;;;-6.57;49.84;95418.88;4983455;28;20519;-77
2023/02/10 03:57:30;;;;;;;42.85;24.20;;;;;;;-6.50;49.79;95427.59;4987014;28;20446;-78
2023/02/10 03:59:56;;;;;;;51.38;23.55;;;;;;;-6.70;49.57;95403.09;4989988;28;20486;-77
2023/02/10 04:02:21;;;;;;;44.83;23.65;;;;;;;-6.46;49.33;95420.28;4989455;28;20033;-78
2023/02/10 04:04:46;;;;;;;42.40;23.27;;;;;;;-6.47;49.31;95422.06;4990413;28;20461;-76
2023/02/10 04:07:12;;;;;;;37.25;22.52;;;;;;;-6.73;49.55;95398.22;4987033;28;20564;-77
2023/02/10 04:09:37;;;;;;;42.85;22.90;;;;;;;-6.85;49.65;95386.63;4988775;28;20038;-78
2023/02/10 04:12:03;;;;;;;42.67;21.45;;;;;;;-6.70;49.64;95409.06;4989944;28;20035;-78
2023/02/10 04:14:28;;;;;;;37.83;20.67;;;;;;;-6.89;49.98;95390.53;4989218;28;20034;-76
2023/02/10 04:16:54;;;;;;;39.05;21.52;;;;;;;-6.84;49.96;95406.38;4987695;28;20026;-78
2023/02/10 04:19:19;;;;;;;38.15;22.10;;;;;;;-6.90;49.80;95386.34;4989533;28;20030;-77
2023/02/10 04:21:45;;;;;;;41.78;23.40;;;;;;;-6.67;49.15;95407.91;4986332;28;20939;-75
2023/02/10 04:24:10;;;;;;;40.65;22.30;;;;;;;-6.48;48.66;95423.03;4986326;28;20046;-79
2023/02/10 04:26:35;;;;;;;42.08;24.27;;;;;;;-6.69;48.83;95402.13;4986669;28;20030;-77
2023/02/10 04:29:01;;;;;;;41.75;23.70;;;;;;;-6.69;49.48;95420.22;4988174;28;20555;-77
2023/02/10 04:31:26;;;;;;;40.38;23.45;;;;;;;-6.75;49.27;95415.72;4986873;28;20034;-78
2023/02/10 04:33:52;;;;;;;36.80;22.25;;;;;;;-6.82;49.29;95394.06;4985883;28;20429;-78
2023/02/10 04:36:17;;;;;;;44.28;22.58;;;;;;;-6.78;49.21;95396.13;4986492;28;20042;-78
2023/02/10 04:38:42;;;;;;;41.50;21.80;;;;;;;-6.58;49.35;95422.44;4985235;28;20038;-78
2023/02/10 04:41:08;;;;;;;39.67;22.10;;;;;;;-6.63;49.17;95412.56;4989744;28;20038;-78
2023/02/10 04:43:34;;;;;;;58.47;30.77;;;;;;;-6.82;49.17;95394.88;4986328;28;20038;-79
2023/02/10 04:45:59;;;;;;;58.45;29.65;;;;;;;-6.82;49.80;95422.50;4985356;28;20089;-78
2023/02/10 04:48:25;;;;;;;44.47;24.48;;;;;;;-6.91;49.91;95413.16;4987556;28;20046;-77
2023/02/10 04:50:52;;;;;;;58.85;32.55;;;;;;;-6.87;49.93;95427.38;4986201;28;20042;-78
2023/02/10 04:53:17;;;;;;;61.75;31.50;;;;;;;-6.79;50.06;95433.34;4988649;28;20197;-79
2023/02/10 04:55:42;;;;;;;76.25;37.92;;;;;;;-7.12;49.96;95393.00;4988262;28;20045;-80
2023/02/10 04:58:08;;;;;;;59.50;29.85;;;;;;;-7.01;49.57;95420.31;4985394;28;20038;-78
2023/02/10 05:00:33;;;;;;;38.88;23.15;;;;;;;-6.77;49.38;95433.16;4988450;28;20066;-79
2023/02/10 05:02:59;;;;;;;45.42;26.10;;;;;;;-6.89;49.15;95416.41;4985820;28;20042;-79
2023/02/10 05:05:25;;;;;;;62.20;28.15;;;;;;;-7.04;49.76;95425.81;4991739;28;20026;-78
2023/02/10 05:07:52;;;;;;;46.30;25.50;;;;;;;-7.03;49.96;95412.75;4991852;28;20891;-77
2023/02/10 05:10:17;;;;;;;73.63;36.40;;;;;;;-7.02;50.13;95426.44;4992037;28;20129;-78
2023/02/10 05:12:43;;;;;;;82.18;39.20;;;;;;;-6.81;49.89;95442.25;4988791;28;20077;-78
2023/02/10 05:15:09;;;;;;;64.20;34.53;;;;;;;-6.94;49.83;95431.63;4989719;28;20062;-78
2023/02/10 05:17:34;;;;;;;72.18;36.30;;;;;;;-6.98;49.81;95422.59;4990258;28;20038;-78
2023/02/10 05:20:00;;;;;;;62.13;35.10;;;;;;;-6.98;49.91;95440.69;4992615;28;20038;-79
2023/02/10 05:22:29;;;;;;;50.42;27.83;;;;;;;-6.93;50.25;95453.94;4991380;28;20033;-77
2023/02/10 05:24:56;;;;;;;42.90;23.98;;;;;;;-6.81;49.81;95470.72;4992284;28;20464;-78
2023/02/10 05:27:23;;;;;;;46.97;26.35;;;;;;;-6.88;49.57;95457.63;4989838;28;20038;-78
2023/02/10 05:29:49;;;;;;;37.85;23.60;;;;;;;-6.81;49.54;95474.09;4991946;28;20030;-77
2023/02/10 05:32:14;;;;;;;43.28;24.55;;;;;;;-6.95;50.01;95474.78;4990993;28;20037;-76
2023/02/10 05:34:39;;;;;;;43.45;23.55;;;;;;;-7.02;50.08;95460.06;4992143;28;20547;-77
2023/02/10 05:37:05;;;;;;;33.00;20.70;;;;;;;-6.92;50.08;95466.69;4991289;28;20057;-77
2023/02/10 05:39:30;;;;;;;35.78;21.30;;;;;;;-6.91;50.13;95477.84;4991315;28;20026;-78
2023/02/10 05:41:57;;;;;;;38.72;21.52;;;;;;;-7.10;50.29;95469.47;4991272;28;20088;-78
2023/02/10 05:44:24;;;;;;;36.33;20.60;;;;;;;-7.02;49.96;95480.75;4988096;28;20064;-78
2023/02/10 05:46:50;;;;;;;39.53;22.50;;;;;;;-7.15;50.17;95476.91;4999430;28;20030;-77
2023/02/10 05:49:16;;;;;;;40.63;21.08;;;;;;;-7.10;50.03;95490.16;4989458;28;20181;-77
2023/02/10 05:51:42;;;;;;;41.47;23.38;;;;;;;-7.19;50.25;95470.47;4990229;28;20505;-78
2023/02/10 05:54:08;;;;;;;41.60;24.23;;;;;;;-7.21;50.45;95462.03;4989294;28;20054;-77
2023/02/10 05:56:33;;;;;;;39.70;22.88;;;;;;;-7.05;50.45;95481.91;4990506;28;20030;-77
2023/02/10 05:58:59;;;;;;;42.63;25.20;;;;;;;-7.03;50.35;95479.16;4991699;28;20149;-77
2023/02/10 06:01:25;;;;;;;43.63;26.48;;;;;;;-7.07;50.12;95476.88;4988137;28;20038;-76
2023/02/10 06:03:50;;;;;;;43.45;25.40;;;;;;;-6.91;50.23;95477.84;4988918;28;20044;-79
2023/02/10 06:06:15;;;;;;;39.00;23.70;;;;;;;-6.87;50.24;95490.28;4991859;28;20038;-79
2023/02/10 06:08:41;;;;;;;47.88;24.50;;;;;;;-6.89;50.11;95499.19;4988782;28;20038;-77
2023/02/10 06:11:07;;;;;;;47.75;26.23;;;;;;;-6.88;50.40;95508.56;4988645;28;20565;-78
2023/02/10 06:13:32;;;;;;;69.90;32.03;;;;;;;-6.94;50.67;95498.88;4989269;28;20038;-79
2023/02/10 06:15:58;;;;;;;46.65;23.25;;;;;;;-6.74;50.34;95500.94;4987028;28;20038;-77
2023/02/10 06:18:23;;;;;;;36.10;21.13;;;;;;;-6.79;50.46;95499.81;4990123;28;20026;-80
2023/02/10 06:20:50;;;;;;;44.45;22.20;;;;;;;-7.06;50.67;95444.91;4987476;28;20049;-78
2023/02/10 06:23:17;;;;;;;37.83;23.83;;;;;;;-6.68;50.73;95500.25;4987115;28;20026;-78
2023/02/10 06:25:43;;;;;;;44.50;24.40;;;;;;;-6.53;50.52;95507.34;4985935;28;20725;-76
2023/02/10 06:28:08;;;;;;;41.13;23.17;;;;;;;-6.47;50.87;95515.25;4987215;28;20049;-76
2023/02/10 06:30:34;;;;;;;39.97;22.25;;;;;;;-6.40;50.65;95518.81;4986176;28;20100;-77
2023/02/10 06:32:59;;;;;;;48.08;25.20;;;;;;;-6.40;50.54;95500.69;4984835;28;20046;-79
2023/02/10 06:35:24;;;;;;;39.00;23.63;;;;;;;-6.20;50.38;95514.81;4988417;28;20049;-76
2023/02/10 06:37:50;;;;;;;38.88;23.38;;;;;;;-6.14;50.29;95517.72;4989166;28;20844;-79
2023/02/10 06:40:15;;;;;;;45.17;25.10;;;;;;;-6.01;50.10;95518.00;4989908;28;20068;-78
2023/02/10 06:42:41;;;;;;;48.47;27.58;;;;;;;-6.23;50.48;95504.81;4988606;28;20040;-77
2023/02/10 06:45:08;;;;;;;45.42;25.13;;;;;;;-6.01;50.20;95523.19;4987609;28;20029;-77
2023/02/10 06:47:34;;;;;;;43.88;25.27;;;;;;;-5.96;50.38;95526.06;4989587;28;20081;-78
2023/02/10 06:49:59;;;;;;;44.13;25.42;;;;;;;-5.82;49.98;95522.75;4990804;28;20125;-77
2023/02/10 06:52:26;;;;;;;46.83;25.38;;;;;;;-5.92;49.87;95528.16;4987123;28;20036;-78
2023/02/10 06:54:52;;;;;;;46.05;26.63;;;;;;;-6.55;51.69;95535.19;4986365;28;20063;-77
2023/02/10 06:57:17;;;;;;;42.33;23.65;;;;;;;-6.13;50.70;95508.97;4983600;28;20034;-78
2023/02/10 06:59:43;;;;;;;47.83;22.30;;;;;;;-5.81;50.31;95538.13;4996363;28;20050;-79
2023/02/10 07:02:10;;;;;;;49.17;25.27;;;;;;;-5.63;49.66;95537.88;4989663;28;20092;-77
2023/02/10 07:04:35;;;;;;;51.55;24.90;;;;;;;-5.73;49.99;95536.47;4996289;28;20121;-77
2023/02/10 07:07:01;;;;;;;39.78;22.85;;;;;;;-5.64;49.95;95532.84;4990358;28;20109;-78
2023/02/10 07:09:26;;;;;;;47.58;25.35;;;;;;;-5.91;50.31;95528.97;4990519;28;20112;-78
2023/02/10 07:11:52;;;;;;;44.55;25.55;;;;;;;-5.38;49.49;95530.75;4986505;28;20039;-77
2023/02/10 07:14:17;;;;;;;40.58;23.88;;;;;;;-6.05;51.21;95537.44;4977823;28;20034;-79
2023/02/10 07:16:43;;;;;;;51.45;26.70;;;;;;;-5.63;50.41;95537.06;4982960;28;20029;-77
2023/02/10 07:19:08;;;;;;;40.50;22.75;;;;;;;-5.63;49.67;95488.63;4985085;28;20038;-79
2023/02/10 07:21:34;;;;;;;42.42;25.52;;;;;;;-5.45;48.92;95494.31;4985125;28;20453;-77
2023/02/10 07:24:01;;;;;;;43.25;25.02;;;;;;;-5.23;48.40;95515.25;4986579;28;20046;-77
2023/02/10 07:26:27;;;;;;;46.50;26.52;;;;;;;-5.52;49.00;95472.69;4984294;28;20040;-78
2023/02/10 07:28:52;;;;;;;49.58;27.17;;;;;;;-5.28;48.68;95496.81;4984129;28;20034;-79
2023/02/10 07:31:18;;;;;;;46.50;26.23;;;;;;;-5.16;48.55;95503.19;4988453;28;20520;-78
2023/02/10 07:33:43;;;;;;;52.67;27.70;;;;;;;-5.74;50.11;95512.34;4988144;28;20092;-76
2023/02/10 07:36:08;;;;;;;49.67;26.35;;;;;;;-5.87;50.44;95515.50;4981810;28;20484;-78
2023/02/10 07:38:34;;;;;;;53.53;29.38;;;;;;;-5.28;49.87;95527.94;4984132;28;20046;-78
2023/02/10 07:41:00;;;;;;;60.20;31.65;;;;;;;-5.46;50.59;95518.63;4984802;28;20743;-77
2023/02/10 07:43:26;;;;;;;66.35;37.28;;;;;;;-6.23;52.27;95494.44;4982189;28;20037;-78
2023/02/10 07:45:51;;;;;;;80.68;40.65;;;;;;;-6.28;53.38;95520.03;4978466;28;20116;-77
2023/02/10 07:48:17;;;;;;;70.30;39.72;;;;;;;-5.71;51.93;95496.44;4990953;28;20164;-77
2023/02/10 07:50:43;;;;;;;65.97;38.63;;;;;;;-5.85;52.56;95512.72;4986058;28;20512;-77
2023/02/10 07:53:09;;;;;;;61.20;34.22;;;;;;;-6.28;52.76;95496.75;4987341;28;20296;-78
2023/02/10 07:55:37;;;;;;;61.60;32.60;;;;;;;-5.85;52.26;95528.25;4986297;28;20049;-78
2023/02/10 07:58:02;;;;;;;69.55;33.70;;;;;;;-5.82;51.58;95507.22;4983854;28;20034;-78
2023/02/10 08:00:28;;;;;;;59.38;35.70;;;;;;;-5.26;51.11;95533.72;4981005;28;20534;-77
2023/02/10 08:02:53;;;;;;;63.67;34.30;;;;;;;-5.58;50.87;95482.91;4987925;28;20457;-78
2023/02/10 08:05:19;;;;;;;68.03;36.13;;;;;;;-5.17;50.78;95522.34;4985214;28;20281;-78
2023/02/10 08:07:44;;;;;;;61.70;35.55;;;;;;;-4.70;49.74;95541.06;4985946;28;20076;-77
2023/02/10 08:10:09;;;;;;;71.75;37.88;;;;;;;-4.52;48.78;95533.75;4986799;28;20513;-78
2023/02/10 08:12:35;;;;;;;66.50;36.72;;;;;;;-4.54;48.94;95530.50;4985831;28;20087;-78
2023/02/10 08:15:00;;;;;;;63.35;37.60;;;;;;;-5.81;51.06;95498.47;4989486;28;20041;-78
2023/02/10 08:17:28;;;;;;;69.90;38.90;;;;;;;-5.86;52.40;95526.69;4985480;28;20032;-78
2023/02/10 08:19:53;;;;;;;75.03;37.83;;;;;;;-5.41;51.07;95499.97;4985550;28;20026;-76
2023/02/10 08:22:18;;;;;;;76.47;38.65;;;;;;;-5.22;51.06;95522.06;4984515;28;20046;-77
2023/02/10 08:24:44;;;;;;;66.88;39.30;;;;;;;-5.11;50.74;95514.66;4989014;28;20539;-77
2023/02/10 08:27:09;;;;;;;64.10;38.08;;;;;;;-5.18;50.08;95499.97;4988324;28;20381;-79
2023/02/10 08:29:34;;;;;;;72.85;37.95;;;;;;;-4.91;50.17;95512.38;4986406;28;20136;-79
2023/02/10 08:32:00;;;;;;;65.90;37.92;;;;;;;-5.18;50.97;95521.53;4986947;28;20022;-78
2023/02/10 08:34:27;;;;;;;73.00;39.33;;;;;;;-4.83;49.93;95494.13;4987535;28;20053;-78
2023/02/10 08:36:52;;;;;;;62.45;36.45;;;;;;;-4.30;48.35;95502.69;4984270;28;20105;-78
2023/02/10 08:39:18;;;;;;;65.20;35.75;;;;;;;-4.48;48.44;95497.81;4985677;28;20030;-78
2023/02/10 08:41:43;;;;;;;63.95;37.40;;;;;;;-4.39;48.61;95520.13;4987972;28;20519;-77
2023/02/10 08:44:12;;;;;;;62.72;38.67;;;;;;;-4.49;48.61;95468.44;4985117;28;20431;-79
2023/02/10 08:46:37;;;;;;;64.90;37.35;;;;;;;-4.21;48.12;95514.59;4987933;28;20049;-80
2023/02/10 08:49:03;;;;;;;71.18;36.75;;;;;;;-3.95;47.04;95494.09;4989114;28;20038;-78
2023/02/10 08:51:30;;;;;;;66.45;35.40;;;;;;;-3.68;46.39;95518.63;4990709;28;20117;-76
2023/02/10 08:53:55;;;;;;;66.38;35.78;;;;;;;-3.41;46.01;95517.91;4992416;28;20045;-75
2023/02/10 08:56:22;;;;;;;62.00;38.00;;;;;;;-3.26;46.42;95520.44;4977375;28;20428;-78
2023/02/10 08:58:47;;;;;;;61.55;35.33;;;;;;;-3.42;46.42;95505.09;4993161;28;20606;-78
2023/02/10 09:01:19;;;;;;;58.60;35.80;;;;;;;-4.01;47.19;95495.66;4990111;28;20038;-78
2023/02/10 09:03:45;;;;;;;59.55;36.22;;;;;;;-4.81;49.00;95501.75;4991803;28;20049;-77
2023/02/10 09:06:23;;;;;;;67.32;36.30;;;;;;;-4.54;48.10;95491.56;4994565;28;20046;-78
2023/02/10 09:08:51;;;;;;;65.10;34.22;;;;;;;-4.48;48.55;95488.25;4988461;28;20049;-78
2023/02/10 09:11:17;;;;;;;63.90;36.28;;;;;;;-4.16;48.32;95512.25;4987047;28;20026;-78
2023/02/10 09:13:42;;;;;;;67.97;37.28;;;;;;;-3.64;46.29;95502.47;4989758;28;20034;-77
2023/02/10 09:16:08;;;;;;;62.70;35.58;;;;;;;-3.45;45.57;95489.84;4989817;28;20421;-77
2023/02/10 09:18:33;;;;;;;66.97;37.20;;;;;;;-3.37;45.60;95476.72;4990124;28;20037;-77
2023/02/10 09:21:00;;;;;;;59.20;34.03;;;;;;;-3.09;46.12;95480.19;4982109;28;20039;-78
2023/02/10 09:23:26;;;;;;;67.72;35.38;;;;;;;-3.18;45.90;95450.06;4986038;28;20030;-78
2023/02/10 09:25:57;;;;;;;51.17;29.92;;;;;;;-3.13;44.96;95479.75;4980538;28;20088;-75
2023/02/10 09:28:23;;;;;;;54.75;30.02;;;;;;;-3.71;46.33;95493.78;4979345;28;20042;-78
2023/02/10 09:30:48;;;;;;;59.65;31.98;;;;;;;-3.74;46.46;95495.94;4980691;28;20715;-77
2023/02/10 09:33:15;;;;;;;52.33;31.73;;;;;;;-3.23;45.68;95481.06;4983010;28;20042;-75
2023/02/10 09:35:43;;;;;;;54.58;30.33;;;;;;;-3.32;46.47;95463.97;4982752;28;20041;-76
2023/02/10 09:38:09;;;;;;;54.22;30.33;;;;;;;-3.61;46.47;95489.09;4980023;28;20583;-76
2023/02/10 09:40:51;;;;;;;55.00;31.13;;;;;;;-3.80;46.75;95471.47;4980105;28;20142;-79
2023/02/10 09:43:33;;;;;;;49.80;29.17;;;;;;;-2.94;45.23;95478.31;4988466;28;20365;-77
2023/02/10 09:46:09;;;;;;;51.13;30.52;;;;;;;-3.88;46.80;95452.59;4979440;28;20679;-78
2023/02/10 09:48:50;;;;;;;47.60;29.45;;;;;;;-3.84;46.62;95464.22;4980551;28;20596;-78
2023/02/10 09:51:24;;;;;;;54.80;27.20;;;;;;;-3.94;46.87;95487.91;4987276;28;20034;-76
2023/02/10 09:53:50;;;;;;;49.13;26.67;;;;;;;-3.42;46.03;95473.88;4978391;28;20050;-78
2023/02/10 09:56:20;;;;;;;47.65;25.77;;;;;;;-3.28;45.75;95481.63;4980039;28;20093;-78
2023/02/10 09:58:51;;;;;;;46.58;24.98;;;;;;;-2.85;43.63;95476.34;4979325;28;20347;-76
2023/02/10 10:01:25;;;;;;;34.50;22.38;;;;;;;-2.82;42.65;95471.56;4978166;28;20073;-78
2023/02/10 10:04:09;;;;;;;68.95;38.17;;;;;;;-2.54;43.17;95470.75;4969408;28;20360;-76
2023/02/10 10:06:41;;;;;;;35.53;20.13;;;;;;;-2.59;42.38;95437.47;4977044;28;20042;-78
2023/02/10 10:09:09;;;;;;;27.38;15.13;;;;;;;-3.08;42.21;95460.16;4976034;28;20457;-76
2023/02/10 10:11:53;;;;;;;36.33;20.15;;;;;;;-2.79;42.97;95459.97;4979631;28;20050;-78
2023/02/10 10:14:39;;;;;;;40.00;22.27;;;;;;;-2.45;42.89;95457.38;4984198;28;20040;-76
2023/02/10 10:17:34;;;;;;;37.60;21.67;;;;;;;-2.25;41.92;95444.47;4980674;28;20042;-78
2023/02/10 10:20:12;;;;;;;39.58;20.30;;;;;;;-1.97;41.66;95424.31;4975712;28;20173;-78
2023/02/10 10:22:43;;;;;;;32.25;20.60;;;;;;;-1.73;40.81;95440.41;4970284;28;20044;-78
2023/02/10 10:25:28;;;;;;;31.70;19.05;;;;;;;-1.85;40.38;95420.13;4975750;28;20045;-76
2023/02/10 10:28:18;;;;;;;41.38;22.10;;;;;;;-1.97;41.13;95434.75;4976635;28;20074;-76
2023/02/10 10:30:53;;;;;;;48.35;25.85;;;;;;;-1.66;41.05;95430.81;4976614;28;20042;-78
2023/02/10 10:33:37;;;;;;;42.08;25.15;;;;;;;-1.41;41.65;95427.41;4978432;28;20177;-77
2023/02/10 10:36:05;;;;;;;39.95;23.08;;;;;;;-1.34;40.89;95393.50;4973978;28;20054;-79
2023/02/10 10:38:40;;;;;;;38.63;23.33;;;;;;;-1.32;41.59;95407.16;4973446;28;20547;-75
2023/02/10 10:41:11;;;;;;;44.75;25.15;;;;;;;-1.05;40.23;95403.53;4974631;28;20026;-77
2023/02/10 10:43:45;;;;;;;30.77;20.88;;;;;;;-1.20;40.87;95415.19;4972939;28;20049;-77
2023/02/10 10:46:27;;;;;;;41.67;23.03;;;;;;;-2.32;42.37;95399.31;4977471;28;20581;-76
2023/02/10 10:48:54;;;;;;;44.72;25.13;;;;;;;-1.93;42.43;95409.06;4979048;28;20818;-76
2023/02/10 10:51:19;;;;;;;45.85;24.60;;;;;;;-1.51;41.34;95384.47;4986515;28;20048;-77
2023/02/10 10:53:51;;;;;;;45.33;24.70;;;;;;;-1.28;40.80;95392.72;4980192;28;20375;-75
2023/02/10 10:56:48;;;;;;;45.20;26.25;;;;;;;-1.74;41.25;95392.66;4979472;28;20144;-75
2023/02/10 10:59:42;;;;;;;43.80;26.80;;;;;;;-2.30;42.78;95402.53;4981250;28;20117;-75
2023/02/10 11:02:16;;;;;;;48.03;27.30;;;;;;;-1.68;42.08;95401.50;4984381;28;20069;-77
2023/02/10 11:04:44;;;;;;;41.05;25.00;;;;;;;-1.13;40.91;95395.94;4985739;28;20129;-78
2023/02/10 11:07:12;;;;;;;40.53;25.50;;;;;;;-0.77;39.93;95390.22;4987344;28;20056;-78
2023/02/10 11:09:41;;;;;;;40.15;25.30;;;;;;;-0.59;39.59;95389.63;4986055;28;20046;-76
2023/02/10 11:12:21;;;;;;;41.13;25.92;;;;;;;-0.54;39.81;95376.72;4988997;28;20076;-79
2023/02/10 11:14:53;;;;;;;45.47;26.27;;;;;;;-1.04;40.18;95386.88;4982049;28;20135;-78
2023/02/10 11:17:39;;;;;;;46.90;27.48;;;;;;;-1.24;41.15;95383.47;4982866;28;20120;-78
2023/02/10 11:20:25;;;;;;;48.88;28.02;;;;;;;-1.07;41.67;95358.53;4982183;28;20018;-78
2023/02/10 11:22:57;;;;;;;48.35;27.10;;;;;;;-0.86;41.43;95380.22;4981015;28;20042;-79
2023/02/10 11:25:25;;;;;;;55.35;29.20;;;;;;;-0.97;41.04;95379.81;4982557;28;20242;-79